createdAt,value
2018-04-09T00:00:57.862Z,-75
2018-04-09T00:03:32.650Z,-75
2018-04-09T00:05:59.318Z,-75
2018-04-09T00:08:25.961Z,-75
2018-04-09T00:10:53.337Z,-75
2018-04-09T00:13:21.113Z,-76
2018-04-09T00:15:47.733Z,-75
2018-04-09T00:18:14.355Z,-74
2018-04-09T00:20:41.735Z,-75
2018-04-09T00:23:09.123Z,-75
2018-04-09T00:25:35.738Z,-75
2018-04-09T00:28:04.721Z,-77
2018-04-09T00:30:31.796Z,-81
2018-04-09T00:32:58.417Z,-81
2018-04-09T00:35:25.071Z,-81
2018-04-09T00:37:51.678Z,-81
2018-04-09T00:40:18.315Z,-81
2018-04-09T00:42:44.972Z,-81
2018-04-09T00:45:11.623Z,-75
2018-04-09T00:47:38.259Z,-75
2018-04-09T00:50:06.391Z,-75
2018-04-09T00:52:33.492Z,-74
2018-04-09T00:55:00.107Z,-76
2018-04-09T00:57:27.119Z,-75
2018-04-09T00:59:53.781Z,-75
2018-04-09T01:02:20.398Z,-75
2018-04-09T01:04:47.016Z,-75
2018-04-09T01:07:13.626Z,-75
2018-04-09T01:09:40.244Z,-74
2018-04-09T01:12:06.866Z,-75
2018-04-09T01:14:33.497Z,-74
2018-04-09T01:17:00.118Z,-75
2018-04-09T01:19:27.009Z,-75
2018-04-09T01:21:53.625Z,-75
2018-04-09T01:24:21.009Z,-75
2018-04-09T01:26:47.651Z,-75
2018-04-09T01:29:15.400Z,-75
2018-04-09T01:31:42.070Z,-81
2018-04-09T01:34:08.659Z,-81
2018-04-09T01:36:35.270Z,-81
2018-04-09T01:39:02.291Z,-81
2018-04-09T01:41:29.305Z,-81
2018-04-09T01:43:56.685Z,-81
2018-04-09T01:46:23.308Z,-81
2018-04-09T01:48:50.688Z,-81
2018-04-09T01:51:17.304Z,-81
2018-04-09T01:53:43.917Z,-81
2018-04-09T01:56:13.866Z,-81
2018-04-09T01:58:40.480Z,-81
2018-04-09T02:01:07.094Z,-81
2018-04-09T02:03:33.727Z,-81
2018-04-09T02:06:01.112Z,-81
2018-04-09T02:08:27.726Z,-81
2018-04-09T02:10:54.343Z,-81
2018-04-09T02:13:21.422Z,-81
2018-04-09T02:15:48.086Z,-81
2018-04-09T02:18:14.701Z,-75
2018-04-09T02:20:41.378Z,-75
2018-04-09T02:23:08.058Z,-75
2018-04-09T02:25:34.701Z,-75
2018-04-09T02:28:01.311Z,-75
2018-04-09T02:30:28.753Z,-75
2018-04-09T02:32:55.372Z,-81
2018-04-09T02:35:21.986Z,-82
2018-04-09T02:37:48.630Z,-82
2018-04-09T02:40:16.010Z,-81
2018-04-09T02:42:42.644Z,-82
2018-04-09T02:45:09.305Z,-81
2018-04-09T02:47:36.327Z,-81
2018-04-09T02:50:02.949Z,-75
2018-04-09T02:52:29.570Z,-75
2018-04-09T02:54:56.233Z,-75
2018-04-09T02:57:22.853Z,-75
2018-04-09T02:59:49.496Z,-75
2018-04-09T03:02:16.166Z,-75
2018-04-09T03:04:42.784Z,-81
2018-04-09T03:07:10.171Z,-81
2018-04-09T03:09:37.943Z,-81
2018-04-09T03:12:05.025Z,-81
2018-04-09T03:14:32.038Z,-81
2018-04-09T03:16:59.043Z,-81
2018-04-09T03:19:26.298Z,-81
2018-04-09T03:21:53.312Z,-75
2018-04-09T03:24:21.590Z,-75
2018-04-09T03:29:28.090Z,-75
2018-04-09T03:31:54.712Z,-75
2018-04-09T03:34:21.856Z,-80
2018-04-09T03:36:48.877Z,-81
2018-04-09T03:39:15.502Z,-81
2018-04-09T03:41:42.138Z,-81
2018-04-09T03:44:08.778Z,-81
2018-04-09T03:46:35.434Z,-81
2018-04-09T03:49:02.053Z,-81
2018-04-09T03:51:28.731Z,-81
2018-04-09T03:53:56.119Z,-81
2018-04-09T03:56:23.157Z,-81
2018-04-09T03:58:49.776Z,-81
2018-04-09T04:01:16.400Z,-81
2018-04-09T04:03:43.017Z,-81
2018-04-09T04:06:10.334Z,-79
2018-04-09T04:08:36.953Z,-75
2018-04-09T04:11:03.638Z,-75
2018-04-09T04:13:30.242Z,-75
2018-04-09T04:15:57.305Z,-75
2018-04-09T04:18:23.930Z,-75
2018-04-09T04:20:50.601Z,-75
2018-04-09T04:23:17.231Z,-81
2018-04-09T04:25:43.851Z,-81
2018-04-09T04:28:10.507Z,-81
2018-04-09T04:30:37.127Z,-81
2018-04-09T04:33:04.509Z,-81
2018-04-09T04:35:32.043Z,-81
2018-04-09T04:37:58.658Z,-81
2018-04-09T04:40:25.665Z,-81
2018-04-09T04:42:52.739Z,-81
2018-04-09T04:45:19.393Z,-81
2018-04-09T04:47:46.759Z,-81
2018-04-09T04:50:13.395Z,-81
2018-04-09T04:52:40.038Z,-75
2018-04-09T04:55:06.670Z,-75
2018-04-09T04:57:33.331Z,-75
2018-04-09T04:59:59.966Z,-75
2018-04-09T05:02:27.752Z,-75
2018-04-09T05:04:54.417Z,-75
2018-04-09T05:07:21.033Z,-75
2018-04-09T05:09:48.418Z,-75
2018-04-09T05:12:15.429Z,-74
2018-04-09T05:14:42.807Z,-75
2018-04-09T05:17:09.462Z,-75
2018-04-09T05:19:36.070Z,-75
2018-04-09T05:22:02.694Z,-75
2018-04-09T05:24:29.990Z,-81
2018-04-09T05:26:57.002Z,-81
2018-04-09T05:29:23.631Z,-81
2018-04-09T05:31:50.237Z,-81
2018-04-09T05:34:16.862Z,-81
2018-04-09T05:36:43.877Z,-81
2018-04-09T05:39:13.832Z,-77
2018-04-09T05:41:40.850Z,-81
2018-04-09T05:44:07.870Z,-81
2018-04-09T05:46:34.489Z,-81
2018-04-09T05:49:01.121Z,-81
2018-04-09T05:51:27.760Z,-81
2018-04-09T05:53:54.449Z,-81
2018-04-09T05:56:21.082Z,-75
2018-04-09T05:58:47.697Z,-75
2018-04-09T06:01:14.342Z,-75
2018-04-09T06:03:40.971Z,-74
2018-04-09T06:06:07.604Z,-75
2018-04-09T06:08:34.213Z,-75
2018-04-09T06:11:00.850Z,-81
2018-04-09T06:13:28.254Z,-81
2018-04-09T06:15:54.870Z,-81
2018-04-09T06:18:21.489Z,-81
2018-04-09T06:20:48.103Z,-81
2018-04-09T06:23:14.742Z,-81
2018-04-09T06:25:42.394Z,-78
2018-04-09T06:28:09.013Z,-81
2018-04-09T06:30:35.633Z,-81
2018-04-09T06:33:02.648Z,-81
2018-04-09T06:35:29.277Z,-81
2018-04-09T06:37:55.900Z,-81
2018-04-09T06:40:22.550Z,-81
2018-04-09T06:42:49.224Z,-81
2018-04-09T06:45:15.977Z,-81
2018-04-09T06:47:56.403Z,-81
2018-04-09T06:50:23.788Z,-81
2018-04-09T06:52:50.884Z,-81
2018-04-09T06:55:17.940Z,-81
2018-04-09T06:57:44.574Z,-81
2018-04-09T07:00:12.365Z,-81
2018-04-09T07:02:39.008Z,-81
2018-04-09T07:05:05.627Z,-81
2018-04-09T07:07:32.263Z,-81
2018-04-09T07:09:58.886Z,-81
2018-04-09T07:12:25.942Z,-81
2018-04-09T07:14:52.963Z,-75
2018-04-09T07:17:20.724Z,-75
2018-04-09T07:19:47.380Z,-75
2018-04-09T07:22:14.396Z,-75
2018-04-09T07:24:41.030Z,-75
2018-04-09T07:27:07.637Z,-75
2018-04-09T07:29:35.060Z,-81
2018-04-09T07:32:02.831Z,-81
2018-04-09T07:34:30.224Z,-81
2018-04-09T07:36:56.832Z,-81
2018-04-09T07:39:23.471Z,-81
2018-04-09T07:41:50.102Z,-81
2018-04-09T07:44:16.740Z,-75
2018-04-09T07:46:43.752Z,-75
2018-04-09T07:49:10.406Z,-75
2018-04-09T07:51:37.794Z,-74
2018-04-09T07:54:04.425Z,-75
2018-04-09T07:56:31.047Z,-75
2018-04-09T07:58:59.334Z,-77
2018-04-09T08:01:26.007Z,-81
2018-04-09T08:03:52.620Z,-81
2018-04-09T08:06:19.645Z,-81
2018-04-09T08:08:46.273Z,-81
2018-04-09T08:11:12.937Z,-81
2018-04-09T08:13:39.564Z,-81
2018-04-09T08:16:07.352Z,-75
2018-04-09T08:18:33.988Z,-75
2018-04-09T08:21:00.613Z,-75
2018-04-09T08:23:27.222Z,-75
2018-04-09T08:25:56.080Z,-75
2018-04-09T08:28:22.753Z,-75
2018-04-09T08:30:49.381Z,-81
2018-04-09T08:33:16.765Z,-81
2018-04-09T08:35:43.847Z,-81
2018-04-09T08:38:11.230Z,-81
2018-04-09T08:40:37.855Z,-81
2018-04-09T08:45:47.548Z,-75
2018-04-09T08:48:14.227Z,-75
2018-04-09T08:50:40.995Z,-75
2018-04-09T08:53:08.638Z,-75
2018-04-09T08:55:35.764Z,-75
2018-04-09T08:58:02.609Z,-75
2018-04-09T09:00:29.994Z,-81
2018-04-09T09:02:57.649Z,-81
2018-04-09T09:05:24.342Z,-81
2018-04-09T09:10:30.617Z,-81
2018-04-09T09:12:57.690Z,-81
2018-04-09T09:15:24.310Z,-80
2018-04-09T09:17:51.399Z,-75
2018-04-09T09:20:18.042Z,-75
2018-04-09T09:22:44.727Z,-74
2018-04-09T09:25:16.602Z,-75
2018-04-09T09:27:43.983Z,-74
2018-04-09T09:30:10.592Z,-74
2018-04-09T09:37:55.137Z,-81
2018-04-09T09:43:02.070Z,-81
2018-04-09T09:45:29.911Z,-81
2018-04-09T09:50:38.560Z,-78
2018-04-09T09:58:24.010Z,-82
2018-04-09T10:00:51.151Z,-82
2018-04-09T10:03:23.644Z,-82
2018-04-09T10:05:50.369Z,-82
2018-04-09T10:10:55.523Z,-81
2018-04-09T10:16:01.104Z,-82
2018-04-09T10:21:13.012Z,-81
